Time;durP1;ratioP1;P1;durP2;ratioP2;P2;SDS_P1;SDS_P2;PMS_P1;PMS_P2;Temp;Humidity;BMP_temperature;BMP_pressure;BME280_temperature;BME280_humidity;BME280_pressure;Samples;Min_cycle;Max_cycle;Signal;HPM_P1;HPM_P2
2022/11/05 00:09:29;;;;;;;5.50;4.47;;;10.20;99.90;;;;;;5095530;28;20863;-58
2022/11/05 00:17:27;;;;;;;6.10;4.60;;;10.10;99.90;;;;;;5094900;28;20462;-58
2022/11/05 00:19:54;;;;;;;4.83;4.43;;;10.10;99.90;;;;;;5095042;28;20948;-57
2022/11/05 00:25:16;;;;;;;10.13;4.00;;;10.00;99.90;;;;;;5094901;28;20443;-57
2022/11/05 00:27:48;;;;;;;8.10;3.93;;;10.00;99.90;;;;;;5095204;28;20427;-57
2022/11/05 00:33:26;;;;;;;3.73;3.43;;;10.00;99.90;;;;;;5094439;28;20757;-57
2022/11/05 00:36:18;;;;;;;4.27;3.87;;;10.00;99.90;;;;;;5094196;28;20460;-57
2022/11/05 00:45:14;;;;;;;5.53;3.43;;;9.90;99.90;;;;;;5094388;28;20434;-58
2022/11/05 00:50:50;;;;;;;5.50;3.20;;;9.90;99.90;;;;;;5094327;28;20399;-57
2022/11/05 00:53:17;;;;;;;4.63;3.53;;;9.90;99.90;;;;;;5094306;28;20454;-57
2022/11/05 00:55:46;;;;;;;4.10;3.80;;;9.90;99.90;;;;;;5093995;28;20467;-57
2022/11/05 00:58:14;;;;;;;4.53;3.67;;;9.90;99.90;;;;;;5093344;28;20985;-57
2022/11/05 01:00:43;;;;;;;4.80;3.13;;;9.80;99.90;;;;;;5094185;28;20790;-58
2022/11/05 01:03:12;;;;;;;6.40;3.43;;;9.90;99.90;;;;;;5094388;28;20527;-57
2022/11/05 01:05:40;;;;;;;6.37;3.10;;;9.90;99.90;;;;;;5094293;28;20475;-57
2022/11/05 01:08:09;;;;;;;3.60;3.30;;;9.90;99.90;;;;;;5094270;28;20513;-57
2022/11/05 01:10:40;;;;;;;3.63;3.33;;;9.80;99.90;;;;;;5094036;28;20821;-57
2022/11/05 01:13:08;;;;;;;4.07;3.47;;;9.80;99.90;;;;;;5094058;28;20520;-57
2022/11/05 01:15:36;;;;;;;3.30;3.00;;;9.90;99.90;;;;;;5093881;28;20463;-57
2022/11/05 01:18:03;;;;;;;3.80;3.23;;;9.90;99.90;;;;;;5093607;28;20485;-57
2022/11/05 01:20:31;;;;;;;3.33;3.03;;;9.90;99.90;;;;;;5094203;28;20481;-57
2022/11/05 01:22:58;;;;;;;3.13;2.93;;;10.00;99.90;;;;;;5093908;28;20451;-57
2022/11/05 01:25:27;;;;;;;7.07;2.53;;;10.00;99.90;;;;;;5093549;28;20977;-57
2022/11/05 01:27:54;;;;;;;3.40;3.10;;;10.00;99.90;;;;;;5093804;28;20919;-57
2022/11/05 01:30:21;;;;;;;4.13;3.20;;;10.00;99.90;;;;;;5093761;28;20443;-57
2022/11/05 01:32:48;;;;;;;6.07;3.43;;;9.90;99.90;;;;;;5093859;28;20448;-57
2022/11/05 01:35:17;;;;;;;3.10;2.90;;;9.90;99.90;;;;;;5093437;28;20965;-58
2022/11/05 01:37:44;;;;;;;4.53;3.23;;;9.80;99.90;;;;;;5093745;28;20480;-58
2022/11/05 01:40:13;;;;;;;4.00;3.07;;;9.80;99.90;;;;;;5093613;28;20447;-58
2022/11/05 01:42:42;;;;;;;3.03;2.73;;;9.80;99.90;;;;;;5093709;28;20443;-58
2022/11/05 01:45:15;;;;;;;5.40;3.20;;;9.80;99.90;;;;;;5093698;28;20828;-58
2022/11/05 01:47:48;;;;;;;3.00;2.70;;;9.90;99.90;;;;;;5093188;28;20467;-58
2022/11/05 01:50:26;;;;;;;8.20;3.10;;;9.90;99.90;;;;;;5093271;28;20428;-58
2022/11/05 01:52:58;;;;;;;3.30;2.83;;;9.90;99.90;;;;;;5093312;28;20424;-59
2022/11/05 01:55:28;;;;;;;3.93;2.63;;;9.80;99.90;;;;;;5093596;28;20459;-58
2022/11/05 01:57:58;;;;;;;3.23;2.97;;;9.80;99.90;;;;;;5093392;28;20980;-58
2022/11/05 02:00:26;;;;;;;3.10;2.80;;;9.80;99.90;;;;;;5093533;28;20424;-58
2022/11/05 02:02:54;;;;;;;4.73;2.30;;;9.90;99.90;;;;;;5093342;28;20447;-58
2022/11/05 02:05:21;;;;;;;3.63;2.90;;;9.90;99.90;;;;;;5093388;28;20532;-58
2022/11/05 02:07:50;;;;;;;2.40;2.20;;;10.00;99.90;;;;;;5093334;28;20447;-58
2022/11/05 02:10:18;;;;;;;2.97;2.77;;;10.00;99.90;;;;;;5094729;28;20448;-58
2022/11/05 02:12:47;;;;;;;3.33;3.03;;;10.00;99.90;;;;;;5097540;28;20451;-58
2022/11/05 02:15:18;;;;;;;2.53;2.33;;;10.00;99.90;;;;;;5097138;28;20987;-58
2022/11/05 02:17:56;;;;;;;4.23;2.17;;;9.90;99.90;;;;;;5097037;28;20984;-58
2022/11/05 02:20:33;;;;;;;3.40;3.10;;;9.90;99.90;;;;;;5097074;28;20788;-58
2022/11/05 02:23:34;;;;;;;2.93;2.70;;;9.90;99.90;;;;;;5097014;28;20434;-58
2022/11/05 02:26:29;;;;;;;2.70;2.50;;;9.90;99.90;;;;;;5096989;28;20470;-58
2022/11/05 02:29:33;;;;;;;2.50;2.30;;;10.00;99.90;;;;;;5096275;28;20534;-58
2022/11/05 02:32:09;;;;;;;2.73;2.53;;;9.90;99.90;;;;;;5097261;28;20427;-58
2022/11/05 02:34:48;;;;;;;4.70;2.90;;;9.90;99.90;;;;;;5097231;28;20481;-58
2022/11/05 02:37:23;;;;;;;2.87;2.67;;;9.90;99.90;;;;;;5097029;28;20826;-58
2022/11/05 02:40:00;;;;;;;2.80;2.60;;;9.90;99.90;;;;;;5097082;28;20460;-58
2022/11/05 02:42:34;;;;;;;2.90;2.10;;;9.90;99.90;;;;;;5096717;28;20518;-58
2022/11/05 02:45:10;;;;;;;2.67;2.37;;;10.00;99.90;;;;;;5096780;28;20474;-58
2022/11/05 02:47:44;;;;;;;4.20;2.40;;;10.00;99.90;;;;;;5096577;28;20470;-58
2022/11/05 02:50:19;;;;;;;4.70;3.50;;;9.90;99.90;;;;;;5097020;28;20427;-58
2022/11/05 02:52:58;;;;;;;2.50;2.30;;;9.90;99.90;;;;;;5096517;28;21260;-58
2022/11/05 02:55:30;;;;;;;2.40;2.20;;;9.90;99.90;;;;;;5096608;28;20556;-58
2022/11/05 02:57:58;;;;;;;3.80;2.60;;;9.90;99.90;;;;;;5096631;28;20464;-58
2022/11/05 03:00:46;;;;;;;2.53;2.33;;;10.00;99.90;;;;;;5096441;28;20457;-58
2022/11/05 03:03:28;;;;;;;2.97;2.67;;;10.00;99.90;;;;;;5096750;28;20424;-58
2022/11/05 03:06:30;;;;;;;7.60;2.70;;;10.00;99.90;;;;;;5096604;28;20487;-58
2022/11/05 03:09:16;;;;;;;3.03;2.33;;;10.00;99.90;;;;;;5045393;28;20454;-58
2022/11/05 03:11:58;;;;;;;5.57;2.73;;;10.00;99.90;;;;;;5096466;28;20839;-58
2022/11/05 03:14:33;;;;;;;3.73;2.60;;;10.00;99.90;;;;;;5095910;28;20467;-58
2022/11/05 03:17:07;;;;;;;3.33;2.77;;;10.00;99.90;;;;;;5096036;28;20427;-58
2022/11/05 03:19:39;;;;;;;2.53;2.33;;;10.00;99.90;;;;;;5096146;28;20437;-58
2022/11/05 03:22:12;;;;;;;5.00;2.47;;;10.00;99.90;;;;;;5095491;28;20424;-58
2022/11/05 03:24:45;;;;;;;3.23;2.90;;;10.00;99.90;;;;;;5095781;28;20459;-58
2022/11/05 03:27:15;;;;;;;2.70;2.50;;;10.00;99.90;;;;;;5096291;28;20435;-58
2022/11/05 03:29:46;;;;;;;2.80;2.60;;;9.90;99.90;;;;;;5096220;28;20423;-58
2022/11/05 03:32:15;;;;;;;4.00;2.80;;;10.00;99.90;;;;;;5095950;28;20774;-58
2022/11/05 03:34:47;;;;;;;4.40;2.33;;;10.00;99.90;;;;;;5095981;28;20489;-58
2022/11/05 03:37:15;;;;;;;3.87;2.90;;;10.10;99.90;;;;;;5095660;28;20920;-58
2022/11/05 03:39:46;;;;;;;2.93;2.73;;;10.00;99.90;;;;;;5096546;28;20797;-58
2022/11/05 03:42:16;;;;;;;2.83;2.30;;;9.90;99.90;;;;;;5095438;28;20815;-58
2022/11/05 03:44:47;;;;;;;2.90;2.70;;;9.90;99.90;;;;;;5095755;28;20467;-58
2022/11/05 03:47:19;;;;;;;3.23;2.40;;;9.90;99.90;;;;;;5095463;28;20550;-58
2022/11/05 03:49:54;;;;;;;2.80;2.60;;;9.90;99.90;;;;;;5095570;28;20436;-58
2022/11/05 03:52:25;;;;;;;2.80;2.60;;;9.90;99.90;;;;;;5095287;28;20919;-58
2022/11/05 03:54:53;;;;;;;2.90;2.60;;;9.90;99.90;;;;;;5095133;28;20470;-58
2022/11/05 03:57:24;;;;;;;2.67;2.47;;;9.90;99.90;;;;;;5095532;28;20443;-58
2022/11/05 03:59:51;;;;;;;5.00;3.00;;;9.90;99.90;;;;;;5095532;28;20810;-58
2022/11/05 04:02:20;;;;;;;7.17;2.63;;;9.90;99.90;;;;;;5095170;28;20447;-58
2022/11/05 04:04:49;;;;;;;6.13;2.83;;;9.90;99.90;;;;;;5095410;28;20467;-58
2022/11/05 04:15:29;;;;;;;3.20;2.90;;;9.90;99.90;;;;;;5095258;28;20500;-58
2022/11/05 04:17:57;;;;;;;3.40;3.10;;;9.90;99.90;;;;;;5095136;28;20487;-58
2022/11/05 04:26:07;;;;;;;3.90;3.20;;;9.70;99.90;;;;;;5087460;28;20500;-58
2022/11/05 04:31:15;;;;;;;3.40;2.93;;;9.90;99.90;;;;;;5093838;28;20500;-58
2022/11/05 04:33:42;;;;;;;4.37;2.93;;;9.90;99.90;;;;;;5095163;28;20448;-58
2022/11/05 04:36:10;;;;;;;6.03;3.40;;;9.70;99.90;;;;;;5094362;28;20562;-58
2022/11/05 04:38:38;;;;;;;5.67;3.37;;;9.70;99.90;;;;;;5094804;28;20509;-58
2022/11/05 04:41:13;;;;;;;3.80;3.50;;;9.70;99.90;;;;;;5094885;28;20471;-58
2022/11/05 04:43:40;;;;;;;6.23;3.90;;;9.70;99.90;;;;;;5094408;28;20435;-58
2022/11/05 04:46:07;;;;;;;3.87;3.47;;;9.70;99.90;;;;;;5094250;28;20471;-58
2022/11/05 04:48:34;;;;;;;4.20;3.80;;;9.70;99.90;;;;;;5094064;28;20964;-59
2022/11/05 04:51:01;;;;;;;4.10;3.80;;;9.70;99.90;;;;;;5094182;28;20447;-59
2022/11/05 04:53:30;;;;;;;3.90;3.53;;;9.70;99.90;;;;;;5094435;28;20464;-59
2022/11/05 04:56:10;;;;;;;3.50;2.93;;;9.80;99.90;;;;;;5094309;28;20474;-58
2022/11/05 04:58:39;;;;;;;3.80;3.50;;;9.80;99.90;;;;;;5094366;28;20851;-58
2022/11/05 05:01:11;;;;;;;3.60;3.30;;;9.70;99.90;;;;;;5094462;28;20447;-58
2022/11/05 05:03:38;;;;;;;4.00;2.80;;;9.80;99.90;;;;;;5093951;28;20771;-59
2022/11/05 05:06:05;;;;;;;6.77;3.43;;;9.90;99.90;;;;;;5094282;28;20464;-59
2022/11/05 05:08:34;;;;;;;4.10;3.10;;;10.00;99.90;;;;;;5094284;28;20543;-59
2022/11/05 05:11:02;;;;;;;4.80;2.97;;;10.00;99.90;;;;;;5093764;28;20449;-58
2022/11/05 05:13:29;;;;;;;4.63;2.70;;;9.90;99.90;;;;;;5094256;28;20947;-58
2022/11/05 05:15:57;;;;;;;3.27;2.83;;;9.90;99.90;;;;;;5093973;28;21030;-58
2022/11/05 05:18:25;;;;;;;3.20;2.90;;;9.80;99.90;;;;;;5093810;28;20988;-58
2022/11/05 05:23:38;;;;;;;11.90;2.93;;;9.80;99.90;;;;;;5093647;28;20411;-59
2022/11/05 05:26:06;;;;;;;4.20;3.80;;;9.80;99.90;;;;;;5093706;28;20466;-58
2022/11/05 05:28:33;;;;;;;3.93;3.60;;;9.70;99.90;;;;;;5093722;28;20447;-58
2022/11/05 05:31:00;;;;;;;7.50;4.40;;;9.70;99.90;;;;;;5093786;28;20444;-58
2022/11/05 05:33:28;;;;;;;5.20;4.43;;;9.70;99.90;;;;;;5093568;28;20454;-59
2022/11/05 05:35:58;;;;;;;5.20;4.37;;;9.80;99.90;;;;;;5093693;28;20495;-58
2022/11/05 05:38:25;;;;;;;5.87;5.27;;;9.80;99.90;;;;;;5093585;28;20489;-58
2022/11/05 05:40:58;;;;;;;5.80;5.10;;;9.70;99.90;;;;;;5093860;28;20925;-58
2022/11/05 05:43:25;;;;;;;7.40;6.70;;;9.70;99.90;;;;;;5093695;28;20485;-59
2022/11/05 05:45:52;;;;;;;7.87;6.53;;;9.70;99.90;;;;;;5092872;28;20498;-58
2022/11/05 05:48:19;;;;;;;9.70;6.90;;;9.60;99.90;;;;;;5093048;28;20558;-58
2022/11/05 05:50:46;;;;;;;8.97;6.83;;;9.60;99.90;;;;;;5093304;28;20450;-58
2022/11/05 05:53:13;;;;;;;10.40;7.33;;;9.70;99.90;;;;;;5093171;28;20451;-58
2022/11/05 05:55:40;;;;;;;8.70;7.27;;;9.70;99.90;;;;;;5093371;28;20851;-58
2022/11/05 05:58:09;;;;;;;8.60;7.47;;;9.70;99.90;;;;;;5093500;28;20450;-58
2022/11/05 06:00:36;;;;;;;10.60;9.37;;;9.80;99.90;;;;;;5093551;28;20439;-58
2022/11/05 06:03:05;;;;;;;10.93;8.90;;;9.70;99.90;;;;;;5093413;28;20874;-58
2022/11/05 06:05:32;;;;;;;12.07;9.10;;;9.70;99.90;;;;;;5093231;28;20555;-59
2022/11/05 06:07:59;;;;;;;10.70;9.60;;;9.70;99.90;;;;;;5093166;28;20459;-58
2022/11/05 06:10:26;;;;;;;12.57;10.43;;;9.70;99.90;;;;;;5093000;28;20444;-58
2022/11/05 06:12:54;;;;;;;16.40;11.90;;;9.70;99.90;;;;;;5093421;28;20836;-58
2022/11/05 06:15:22;;;;;;;13.47;12.07;;;9.70;99.90;;;;;;5093223;28;20467;-58
2022/11/05 06:17:49;;;;;;;15.17;12.10;;;9.70;99.90;;;;;;5093018;28;20482;-59
2022/11/05 06:20:17;;;;;;;18.80;13.07;;;9.70;99.90;;;;;;5093386;28;20577;-58
2022/11/05 06:22:44;;;;;;;17.63;13.93;;;9.60;99.90;;;;;;5092892;28;20447;-58
2022/11/05 06:25:11;;;;;;;15.43;13.37;;;9.60;99.90;;;;;;5093006;28;20464;-58
2022/11/05 06:27:38;;;;;;;18.97;15.73;;;9.70;99.90;;;;;;5092980;28;20531;-58
2022/11/05 06:30:06;;;;;;;18.50;14.83;;;9.70;99.90;;;;;;5093108;28;20530;-58
2022/11/05 06:32:35;;;;;;;17.30;15.33;;;9.60;99.90;;;;;;5092809;28;20454;-58
2022/11/05 06:35:02;;;;;;;15.30;12.90;;;9.70;99.90;;;;;;5092899;28;20475;-58
2022/11/05 06:37:32;;;;;;;21.47;16.10;;;9.50;99.90;;;;;;5093418;28;20530;-58
2022/11/05 06:40:00;;;;;;;18.00;15.13;;;9.50;99.90;;;;;;5092806;28;20471;-58
2022/11/05 06:42:27;;;;;;;19.27;15.13;;;9.60;99.90;;;;;;5093036;28;20443;-58
2022/11/05 06:44:54;;;;;;;22.70;16.17;;;9.50;99.90;;;;;;5092827;28;20471;-58
2022/11/05 06:47:21;;;;;;;20.67;16.87;;;9.50;99.90;;;;;;5092701;28;20475;-58
2022/11/05 06:49:50;;;;;;;18.40;15.10;;;9.50;99.90;;;;;;5092687;28;20996;-59
2022/11/05 06:52:17;;;;;;;21.60;16.17;;;9.50;99.90;;;;;;5092704;28;20815;-58
2022/11/05 06:54:44;;;;;;;18.43;15.40;;;9.40;99.90;;;;;;5092895;28;20550;-58
2022/11/05 06:57:12;;;;;;;20.70;16.60;;;9.50;99.90;;;;;;5094152;28;20482;-58
2022/11/05 06:59:40;;;;;;;24.33;19.03;;;9.60;99.90;;;;;;5096352;28;20493;-58
2022/11/05 07:02:10;;;;;;;20.70;18.50;;;9.50;99.90;;;;;;5096229;28;20481;-58
2022/11/05 07:04:37;;;;;;;22.57;16.80;;;9.60;99.90;;;;;;5096146;28;20547;-58
2022/11/05 07:07:05;;;;;;;19.83;16.17;;;9.60;99.90;;;;;;5096156;28;20443;-58
2022/11/05 07:09:32;;;;;;;22.00;17.43;;;9.60;99.90;;;;;;5096642;28;20451;-58
2022/11/05 07:11:59;;;;;;;20.90;17.50;;;9.70;99.90;;;;;;5096452;28;20451;-58
2022/11/05 07:14:26;;;;;;;19.93;15.40;;;9.60;99.90;;;;;;5096449;28;20473;-58
2022/11/05 07:16:54;;;;;;;19.67;16.00;;;9.70;99.90;;;;;;5096052;28;20454;-58
2022/11/05 07:19:21;;;;;;;21.80;15.53;;;9.70;99.90;;;;;;5096240;28;20481;-58
2022/11/05 07:21:49;;;;;;;23.47;15.23;;;9.80;99.90;;;;;;5096415;28;20447;-58
2022/11/05 07:24:18;;;;;;;21.80;15.70;;;9.80;99.90;;;;;;5096191;28;20860;-58
2022/11/05 07:26:45;;;;;;;20.60;16.90;;;9.70;99.90;;;;;;5095978;28;20487;-58
2022/11/05 07:29:12;;;;;;;22.03;16.40;;;9.70;99.90;;;;;;5096041;28;20440;-58
2022/11/05 07:31:39;;;;;;;24.40;16.03;;;9.70;99.90;;;;;;5095818;28;20968;-58
2022/11/05 07:34:06;;;;;;;25.20;17.27;;;9.80;99.90;;;;;;5095624;28;20443;-58
2022/11/05 07:36:33;;;;;;;24.80;15.73;;;9.70;99.90;;;;;;5095951;28;20452;-58
2022/11/05 07:39:00;;;;;;;20.40;15.87;;;9.80;99.90;;;;;;5095937;28;20490;-58
2022/11/05 07:41:29;;;;;;;21.37;16.20;;;9.70;99.90;;;;;;5095783;28;20534;-58
2022/11/05 07:43:56;;;;;;;18.73;14.63;;;9.70;99.90;;;;;;5095690;28;20439;-58
2022/11/05 07:46:23;;;;;;;18.07;15.87;;;9.80;99.90;;;;;;5095599;28;20494;-58
2022/11/05 07:48:50;;;;;;;23.60;15.20;;;9.80;99.90;;;;;;5095804;28;20439;-58
2022/11/05 07:51:17;;;;;;;19.83;14.90;;;9.80;99.90;;;;;;5095602;28;20530;-57
2022/11/05 07:53:47;;;;;;;19.87;15.67;;;9.60;99.90;;;;;;5095692;28;20850;-58
2022/11/05 07:56:14;;;;;;;20.60;15.53;;;9.70;99.90;;;;;;5095449;28;20965;-57
2022/11/05 07:58:42;;;;;;;22.70;15.30;;;9.70;99.90;;;;;;5095343;28;20454;-57
2022/11/05 08:01:10;;;;;;;21.27;16.37;;;9.80;99.90;;;;;;5095620;28;20451;-57
2022/11/05 08:03:37;;;;;;;19.90;16.23;;;9.80;99.90;;;;;;5095687;28;20823;-57
2022/11/05 08:06:05;;;;;;;17.70;15.30;;;9.80;99.90;;;;;;5095470;28;20468;-58
2022/11/05 08:08:32;;;;;;;14.53;13.03;;;9.80;99.90;;;;;;5095060;28;20578;-58
2022/11/05 08:11:03;;;;;;;18.67;14.00;;;9.80;99.90;;;;;;5095451;28;20543;-58
2022/11/05 08:13:30;;;;;;;13.60;12.20;;;9.60;99.90;;;;;;5095193;28;20447;-57
2022/11/05 08:16:00;;;;;;;13.20;11.80;;;9.50;99.90;;;;;;5095139;28;20471;-57
2022/11/05 08:18:31;;;;;;;12.80;11.50;;;9.40;99.90;;;;;;5094920;28;20451;-57
2022/11/05 08:20:59;;;;;;;13.40;9.47;;;9.30;99.90;;;;;;5094684;28;20432;-58
2022/11/05 08:23:27;;;;;;;9.80;7.83;;;9.40;99.90;;;;;;5094555;28;20538;-57
2022/11/05 08:25:55;;;;;;;8.93;7.57;;;9.30;99.90;;;;;;5094703;28;20546;-58
2022/11/05 08:28:22;;;;;;;7.93;7.07;;;9.30;99.90;;;;;;5094914;28;20626;-58
2022/11/05 08:30:50;;;;;;;9.77;8.53;;;9.20;99.90;;;;;;5094482;28;20450;-58
2022/11/05 08:33:20;;;;;;;7.67;6.97;;;9.30;99.90;;;;;;5094908;28;20546;-58
2022/11/05 08:35:48;;;;;;;6.67;6.03;;;9.30;99.90;;;;;;5094726;28;20536;-58
2022/11/05 08:38:17;;;;;;;6.30;5.67;;;9.40;99.90;;;;;;5094612;28;20463;-57
2022/11/05 08:40:45;;;;;;;8.03;6.33;;;9.50;99.90;;;;;;5094571;28;20479;-57
2022/11/05 08:43:14;;;;;;;6.37;5.77;;;9.50;99.90;;;;;;5094685;28;20455;-57
2022/11/05 08:45:42;;;;;;;6.30;5.37;;;9.40;99.90;;;;;;5093051;28;20883;-58
2022/11/05 08:48:15;;;;;;;5.27;4.77;;;9.30;99.90;;;;;;5094209;28;20482;-57
2022/11/05 08:50:44;;;;;;;6.10;4.93;;;9.20;99.90;;;;;;5094876;28;20458;-58
2022/11/05 08:53:12;;;;;;;6.03;5.43;;;9.30;99.90;;;;;;5094256;28;20450;-58
2022/11/05 08:55:39;;;;;;;6.47;5.63;;;9.30;99.90;;;;;;5093752;28;20471;-57
2022/11/05 08:58:10;;;;;;;5.53;5.03;;;9.30;99.90;;;;;;5077367;28;20839;-57
2022/11/05 09:00:37;;;;;;;6.10;5.50;;;9.20;99.90;;;;;;5076146;28;20464;-57
2022/11/05 09:03:06;;;;;;;6.63;5.93;;;9.20;99.90;;;;;;5082759;28;20451;-57
2022/11/05 09:05:36;;;;;;;5.83;5.33;;;9.20;99.90;;;;;;5086181;28;20460;-57
2022/11/05 09:08:05;;;;;;;7.17;5.97;;;9.20;99.90;;;;;;5072767;28;20565;-57
2022/11/05 09:10:32;;;;;;;7.40;6.03;;;9.20;99.90;;;;;;5072302;28;20540;-57
2022/11/05 09:13:00;;;;;;;6.30;5.67;;;9.30;99.90;;;;;;5076496;28;20444;-57
2022/11/05 09:15:27;;;;;;;6.90;5.60;;;9.40;99.90;;;;;;5072913;28;20461;-57
2022/11/05 09:17:55;;;;;;;7.10;6.40;;;9.40;99.90;;;;;;5073427;28;20452;-57
2022/11/05 09:20:23;;;;;;;6.63;5.97;;;9.40;99.90;;;;;;5078539;28;20479;-58
2022/11/05 09:22:50;;;;;;;6.33;5.73;;;9.50;99.90;;;;;;5087744;28;21017;-57
2022/11/05 09:25:19;;;;;;;6.10;5.50;;;9.50;99.90;;;;;;5084331;28;20482;-57
2022/11/05 09:27:46;;;;;;;5.87;4.93;;;9.40;99.90;;;;;;5081705;28;20442;-57
2022/11/05 09:30:14;;;;;;;7.37;6.57;;;9.40;99.90;;;;;;5083024;28;20428;-57
2022/11/05 09:32:41;;;;;;;6.60;5.90;;;9.40;99.90;;;;;;5081337;28;20515;-57
2022/11/05 09:35:09;;;;;;;8.27;6.33;;;9.40;99.90;;;;;;5079961;28;20542;-57
2022/11/05 09:37:37;;;;;;;8.50;6.83;;;9.30;99.90;;;;;;5084989;28;20436;-58
2022/11/05 09:40:05;;;;;;;11.40;10.20;;;9.40;99.90;;;;;;5085731;28;20466;-57
2022/11/05 09:42:39;;;;;;;8.30;6.80;;;9.60;99.90;;;;;;5085055;28;20529;-57
2022/11/05 09:45:10;;;;;;;27.03;16.27;;;9.60;99.90;;;;;;5084833;28;20486;-57
2022/11/05 09:47:43;;;;;;;8.27;7.47;;;9.50;99.90;;;;;;5084831;28;20837;-58
2022/11/05 09:50:16;;;;;;;15.57;10.53;;;9.50;99.90;;;;;;5077289;28;20531;-57
2022/11/05 09:52:44;;;;;;;43.37;21.90;;;9.60;99.90;;;;;;5084858;28;20438;-58
2022/11/05 09:55:20;;;;;;;43.83;20.47;;;9.50;99.90;;;;;;5084458;28;20464;-58
2022/11/05 09:57:53;;;;;;;37.80;21.57;;;9.40;99.90;;;;;;5078454;28;20432;-57
2022/11/05 10:00:20;;;;;;;20.37;13.27;;;9.40;99.90;;;;;;5080684;28;20461;-58
2022/11/05 10:02:51;;;;;;;31.70;19.20;;;9.50;99.90;;;;;;5084669;28;20446;-58
2022/11/05 10:05:20;;;;;;;14.03;10.37;;;9.50;99.90;;;;;;5084893;28;20464;-58
2022/11/05 10:07:52;;;;;;;15.33;12.70;;;9.50;99.90;;;;;;5085388;28;20454;-58
2022/11/05 10:10:28;;;;;;;18.30;12.70;;;9.50;99.90;;;;;;5084101;28;20416;-58
2022/11/05 10:13:01;;;;;;;12.27;10.83;;;9.60;99.90;;;;;;5084393;28;20793;-57
2022/11/05 10:15:31;;;;;;;16.93;12.00;;;9.60;99.90;;;;;;5084059;28;20554;-58
2022/11/05 10:18:02;;;;;;;12.60;10.87;;;9.60;99.90;;;;;;5076801;28;20435;-57
2022/11/05 10:20:34;;;;;;;11.30;9.53;;;9.60;99.90;;;;;;5079085;28;20459;-57
2022/11/05 10:23:08;;;;;;;13.93;11.20;;;9.50;99.90;;;;;;5082042;28;20435;-57
2022/11/05 10:25:39;;;;;;;12.40;10.60;;;9.60;99.90;;;;;;5082848;28;20451;-57
2022/11/05 10:28:11;;;;;;;10.10;8.73;;;9.70;99.90;;;;;;5080141;28;20464;-58
2022/11/05 10:30:38;;;;;;;11.33;9.13;;;9.90;99.90;;;;;;5085566;28;20439;-57
2022/11/05 10:33:08;;;;;;;12.57;8.77;;;9.90;99.90;;;;;;5089141;28;20446;-56
2022/11/05 10:35:46;;;;;;;10.93;8.80;;;9.90;99.90;;;;;;5086258;28;20459;-57
2022/11/05 10:38:15;;;;;;;10.90;9.20;;;9.80;99.90;;;;;;5080471;28;20882;-56
2022/11/05 10:40:49;;;;;;;12.60;10.13;;;9.80;99.90;;;;;;5083543;28;20474;-58
2022/11/05 10:43:25;;;;;;;11.27;9.83;;;9.90;99.90;;;;;;5086371;28;20428;-58
2022/11/05 10:45:59;;;;;;;11.20;9.53;;;10.00;99.90;;;;;;5085115;28;20459;-57
2022/11/05 10:48:49;;;;;;;13.00;9.27;;;10.00;99.90;;;;;;5093461;28;20466;-58
2022/11/05 10:51:17;;;;;;;13.67;10.80;;;9.90;99.90;;;;;;5095188;28;20438;-59
2022/11/05 10:53:52;;;;;;;13.60;9.33;;;10.10;99.90;;;;;;5097307;28;21369;-59
2022/11/05 10:56:34;;;;;;;16.17;9.97;;;10.20;99.90;;;;;;5093459;28;20979;-59
2022/11/05 10:59:04;;;;;;;13.43;9.93;;;10.20;99.90;;;;;;5094292;28;20462;-60
2022/11/05 11:01:32;;;;;;;9.97;8.60;;;10.20;99.90;;;;;;5093759;28;20820;-60
2022/11/05 11:04:13;;;;;;;11.37;9.50;;;10.20;99.90;;;;;;5095713;28;20807;-59
2022/11/05 11:06:48;;;;;;;12.47;9.20;;;10.50;99.90;;;;;;5095269;28;20968;-60
2022/11/05 11:09:22;;;;;;;11.33;9.03;;;10.80;99.90;;;;;;5094754;28;20504;-60
2022/11/05 11:11:59;;;;;;;11.67;8.40;;;10.90;99.90;;;;;;5094417;28;20454;-60
2022/11/05 11:14:28;;;;;;;10.87;8.20;;;11.20;99.90;;;;;;5095298;28;20798;-60
2022/11/05 11:16:56;;;;;;;10.30;8.50;;;11.10;99.90;;;;;;5095563;28;20501;-59
2022/11/05 11:19:31;;;;;;;13.80;8.07;;;10.80;99.90;;;;;;5094854;28;20451;-59
2022/11/05 11:22:20;;;;;;;8.57;7.73;;;10.90;99.90;;;;;;5097072;28;20438;-59
2022/11/05 11:24:50;;;;;;;8.63;7.23;;;10.90;99.90;;;;;;5088744;28;20470;-60
2022/11/05 11:27:22;;;;;;;7.93;7.13;;;11.10;99.90;;;;;;5094510;28;20424;-60
2022/11/05 11:29:56;;;;;;;12.00;8.67;;;11.00;99.90;;;;;;5095350;28;20419;-59
2022/11/05 11:32:27;;;;;;;10.90;8.50;;;10.90;99.90;;;;;;5095188;28;20438;-59
2022/11/05 11:34:56;;;;;;;11.30;9.00;;;11.10;99.90;;;;;;5094783;28;20459;-59
2022/11/05 11:37:26;;;;;;;11.00;7.60;;;11.20;99.90;;;;;;5095004;28;20435;-59
2022/11/05 11:39:56;;;;;;;9.50;8.30;;;11.60;99.90;;;;;;5095508;28;20467;-59
2022/11/05 11:42:29;;;;;;;10.70;8.10;;;11.80;99.90;;;;;;5088057;28;20442;-59
2022/11/05 11:45:01;;;;;;;8.57;7.77;;;12.20;99.90;;;;;;5095012;28;20463;-59
2022/11/05 11:47:29;;;;;;;11.53;9.00;;;12.30;99.90;;;;;;5094839;28;20515;-60
2022/11/05 11:49:58;;;;;;;12.73;8.70;;;12.10;99.90;;;;;;5088495;28;20794;-57
2022/11/05 11:52:29;;;;;;;14.30;10.60;;;11.60;99.90;;;;;;5094214;28;20518;-63
2022/11/05 11:55:20;;;;;;;13.07;10.90;;;11.40;99.90;;;;;;5094960;28;20984;-61
2022/11/05 11:57:49;;;;;;;13.57;9.57;;;11.30;99.90;;;;;;5092064;28;20515;-58
2022/11/05 12:00:19;;;;;;;12.07;8.97;;;11.20;99.90;;;;;;5094995;28;20864;-57
2022/11/05 12:03:17;;;;;;;11.53;8.80;;;11.20;99.90;;;;;;5094618;28;20471;-58
2022/11/05 12:05:48;;;;;;;9.63;8.73;;;11.10;99.90;;;;;;5089321;28;20969;-59
2022/11/05 12:08:31;;;;;;;10.83;8.13;;;11.20;99.90;;;;;;5094661;28;20972;-59
2022/11/05 12:11:05;;;;;;;9.60;8.60;;;11.30;99.90;;;;;;5089062;28;20434;-60
2022/11/05 12:13:59;;;;;;;6.90;6.20;;;11.40;99.90;;;;;;5094617;28;20431;-57
2022/11/05 12:16:56;;;;;;;9.97;7.90;;;11.60;99.90;;;;;;5083986;28;20471;-54
2022/11/05 12:19:37;;;;;;;9.73;8.40;;;11.80;99.90;;;;;;5068478;28;21021;-57
2022/11/05 12:22:16;;;;;;;8.50;6.23;;;12.10;99.90;;;;;;5093701;28;20463;-59
2022/11/05 12:24:57;;;;;;;8.83;7.50;;;12.40;99.90;;;;;;5094010;28;20478;-59
2022/11/05 12:27:44;;;;;;;13.03;9.00;;;12.00;99.90;;;;;;5094488;28;20428;-59
2022/11/05 12:30:15;;;;;;;8.20;7.30;;;11.80;99.90;;;;;;5094658;28;20499;-59
2022/11/05 12:33:02;;;;;;;9.77;7.00;;;11.80;99.90;;;;;;5088491;28;20428;-60
2022/11/05 12:35:46;;;;;;;8.77;7.87;;;11.80;99.90;;;;;;5093690;28;20463;-59
2022/11/05 12:38:26;;;;;;;8.67;7.77;;;11.70;99.90;;;;;;5090286;28;20439;-60
2022/11/05 12:41:10;;;;;;;11.83;7.67;;;11.70;99.90;;;;;;5093937;28;20561;-59
2022/11/05 12:43:51;;;;;;;9.07;8.17;;;11.70;99.90;;;;;;5093889;28;20442;-59
2022/11/05 12:46:29;;;;;;;8.90;7.37;;;11.70;99.90;;;;;;5088343;28;20467;-59
2022/11/05 12:49:18;;;;;;;8.57;6.93;;;11.80;99.90;;;;;;5093304;28;20937;-59
2022/11/05 12:52:03;;;;;;;9.77;6.83;;;11.90;99.90;;;;;;5090329;28;20456;-59
2022/11/05 12:54:43;;;;;;;7.67;6.00;;;11.90;99.90;;;;;;5086574;28;20534;-59
2022/11/05 12:57:13;;;;;;;7.13;6.43;;;11.90;99.90;;;;;;5093920;28;20424;-59
2022/11/05 12:59:49;;;;;;;12.57;7.97;;;11.90;99.90;;;;;;5093580;28;20440;-59
2022/11/05 13:02:22;;;;;;;8.00;6.87;;;11.80;99.90;;;;;;5093420;28;21008;-59
2022/11/05 13:04:54;;;;;;;8.00;7.30;;;11.80;99.90;;;;;;5093427;28;20470;-59
2022/11/05 13:07:28;;;;;;;7.03;6.30;;;11.70;99.90;;;;;;5093668;28;20469;-59
2022/11/05 13:10:01;;;;;;;8.60;6.93;;;11.70;99.90;;;;;;5093713;28;20439;-59
2022/11/05 13:12:32;;;;;;;8.20;6.70;;;11.70;99.90;;;;;;5087298;28;20856;-59
2022/11/05 13:15:03;;;;;;;10.23;8.13;;;11.70;99.90;;;;;;5093207;28;20816;-59
2022/11/05 13:17:37;;;;;;;8.93;7.50;;;11.70;99.90;;;;;;5093612;28;20428;-59
2022/11/05 13:20:13;;;;;;;9.53;6.63;;;11.70;99.90;;;;;;5087606;28;20457;-59
2022/11/05 13:22:44;;;;;;;7.73;7.00;;;11.70;99.90;;;;;;5093080;28;20479;-59
2022/11/05 13:25:18;;;;;;;8.37;6.90;;;11.60;99.90;;;;;;5092815;28;20466;-59
2022/11/05 13:27:53;;;;;;;8.00;7.10;;;11.70;99.90;;;;;;5093684;28;20504;-59
2022/11/05 13:30:22;;;;;;;7.90;7.10;;;11.50;99.90;;;;;;5093489;28;20423;-59
2022/11/05 13:32:58;;;;;;;9.67;8.60;;;11.30;99.90;;;;;;5093072;28;20453;-59
2022/11/05 13:35:30;;;;;;;7.20;6.50;;;11.40;99.90;;;;;;5093187;28;20467;-59
2022/11/05 13:40:59;;;;;;;6.40;5.80;;;11.20;99.90;;;;;;5093005;28;20949;-60
2022/11/05 13:43:41;;;;;;;10.33;7.00;;;11.20;99.90;;;;;;5088509;28;20456;-59
2022/11/05 13:46:25;;;;;;;7.07;6.37;;;11.20;99.90;;;;;;5092706;28;20827;-59
2022/11/05 13:49:19;;;;;;;7.53;6.33;;;11.10;99.90;;;;;;5092323;28;20524;-59
2022/11/05 13:51:58;;;;;;;9.03;7.13;;;11.00;99.90;;;;;;5090126;28;20424;-59
2022/11/05 13:54:59;;;;;;;7.47;5.37;;;10.90;99.90;;;;;;5093228;28;21004;-60
2022/11/05 13:58:01;;;;;;;7.20;6.20;;;11.00;99.90;;;;;;5092893;28;20432;-59
2022/11/05 14:00:32;;;;;;;7.17;6.43;;;10.90;99.90;;;;;;5092614;28;20518;-59
2022/11/05 14:03:03;;;;;;;7.37;6.67;;;10.80;99.90;;;;;;5092578;28;20467;-59